Time;durP1;ratioP1;P1;durP2;ratioP2;P2;SDS_P1;SDS_P2;PMS_P1;PMS_P2;Temp;Humidity;BMP_temperature;BMP_pressure;BME280_temperature;BME280_humidity;BME280_pressure;Samples;Min_cycle;Max_cycle;Signal;HPM_P1;HPM_P2
2023/12/29 00:01:30;;;;;;;3.05;1.00;;;10.10;99.90;;;;;;5006646;28;20423;-72
2023/12/29 00:03:57;;;;;;;3.17;1.10;;;10.10;99.90;;;;;;5006827;28;20417;-72
2023/12/29 00:06:24;;;;;;;1.70;1.00;;;10.20;99.90;;;;;;5006898;28;20416;-72
2023/12/29 00:08:50;;;;;;;2.20;1.00;;;10.10;99.90;;;;;;5005311;28;20409;-73
2023/12/29 00:11:18;;;;;;;2.13;1.23;;;10.20;99.90;;;;;;5009836;28;20436;-73
2023/12/29 00:13:46;;;;;;;2.05;1.25;;;10.20;99.90;;;;;;5006441;28;20427;-73
2023/12/29 00:16:13;;;;;;;2.00;0.90;;;10.20;99.90;;;;;;5005282;28;20425;-73
2023/12/29 00:18:40;;;;;;;3.28;1.20;;;10.20;99.90;;;;;;5006329;28;20436;-72
2023/12/29 00:21:07;;;;;;;2.60;1.25;;;10.20;99.90;;;;;;5006762;28;20840;-71
2023/12/29 00:23:34;;;;;;;3.15;1.20;;;10.30;99.90;;;;;;5006648;28;20434;-73
2023/12/29 00:26:00;;;;;;;3.00;1.27;;;10.40;99.90;;;;;;5009391;28;20473;-72
2023/12/29 00:28:27;;;;;;;2.13;1.10;;;10.40;99.90;;;;;;5013315;28;20889;-73
2023/12/29 00:30:55;;;;;;;2.15;0.90;;;10.40;99.90;;;;;;5011359;28;20424;-72
2023/12/29 00:33:22;;;;;;;3.55;1.10;;;10.50;99.90;;;;;;5010667;28;20439;-73
2023/12/29 00:35:48;;;;;;;2.58;1.20;;;10.50;99.90;;;;;;5009676;28;20421;-72
2023/12/29 00:38:15;;;;;;;3.33;1.20;;;10.50;99.90;;;;;;5008898;28;20430;-72
2023/12/29 00:40:42;;;;;;;4.10;1.20;;;10.50;99.90;;;;;;5009558;28;20439;-73
2023/12/29 00:43:09;;;;;;;2.17;1.05;;;10.50;99.90;;;;;;5009505;28;20441;-73
2023/12/29 00:45:36;;;;;;;4.40;1.20;;;10.50;99.90;;;;;;5010324;28;20440;-73
2023/12/29 00:48:04;;;;;;;3.78;1.38;;;10.50;99.90;;;;;;5009718;28;20792;-73
2023/12/29 00:50:31;;;;;;;2.60;1.23;;;10.50;99.90;;;;;;5009825;28;20443;-73
2023/12/29 00:52:58;;;;;;;2.85;1.23;;;10.50;99.90;;;;;;5009946;28;20419;-73
2023/12/29 00:55:24;;;;;;;4.03;1.20;;;10.50;99.90;;;;;;5009185;28;20471;-73
2023/12/29 00:57:51;;;;;;;3.65;1.23;;;10.60;99.90;;;;;;5008449;28;20441;-72
2023/12/29 01:00:18;;;;;;;3.17;1.30;;;10.60;99.90;;;;;;5009788;28;20432;-73
2023/12/29 01:02:45;;;;;;;3.13;1.17;;;10.60;99.90;;;;;;5010085;28;20880;-73
2023/12/29 01:05:16;;;;;;;3.78;1.30;;;10.60;99.90;;;;;;5004797;28;20444;-73
2023/12/29 01:07:42;;;;;;;3.22;1.40;;;10.60;99.90;;;;;;5000082;28;20422;-73
2023/12/29 01:10:10;;;;;;;4.43;1.45;;;10.70;99.90;;;;;;5005572;28;20777;-72
2023/12/29 01:12:37;;;;;;;4.32;1.35;;;10.60;99.90;;;;;;5009270;28;20604;-72
2023/12/29 01:15:04;;;;;;;3.63;1.35;;;10.60;99.90;;;;;;5005069;28;22281;-73
2023/12/29 01:17:30;;;;;;;3.40;1.50;;;10.60;99.90;;;;;;5006037;28;20811;-72
2023/12/29 01:19:57;;;;;;;2.50;1.50;;;10.60;99.90;;;;;;5004645;28;20433;-73
2023/12/29 01:22:25;;;;;;;4.60;1.42;;;10.60;99.90;;;;;;5009117;28;20808;-72
2023/12/29 01:24:52;;;;;;;6.00;1.88;;;10.60;99.90;;;;;;5009954;28;20455;-73
2023/12/29 01:27:19;;;;;;;2.25;1.00;;;10.60;99.90;;;;;;5008743;28;20419;-72
2023/12/29 01:29:45;;;;;;;2.70;1.60;;;10.60;99.90;;;;;;5008792;28;20448;-72
2023/12/29 01:32:12;;;;;;;3.78;1.50;;;10.60;99.90;;;;;;5009322;28;20424;-72
2023/12/29 01:34:39;;;;;;;4.60;1.70;;;10.60;99.90;;;;;;5009747;28;20799;-73
2023/12/29 01:37:06;;;;;;;4.70;1.60;;;10.60;99.90;;;;;;5009314;28;20433;-72
2023/12/29 01:39:34;;;;;;;3.55;1.50;;;10.50;99.90;;;;;;5008560;28;20436;-73
2023/12/29 01:42:01;;;;;;;4.43;1.70;;;10.50;99.90;;;;;;5011985;28;20785;-72
2023/12/29 01:44:27;;;;;;;2.80;1.42;;;10.50;99.90;;;;;;5011510;28;20411;-73
2023/12/29 01:46:56;;;;;;;2.45;1.20;;;10.50;99.90;;;;;;5008385;28;20428;-72
2023/12/29 01:49:23;;;;;;;3.40;1.30;;;10.50;99.90;;;;;;5009106;28;20409;-72
2023/12/29 01:51:51;;;;;;;3.88;1.40;;;10.50;99.90;;;;;;5008648;28;20416;-73
2023/12/29 01:54:20;;;;;;;4.33;1.63;;;10.60;99.90;;;;;;5011258;28;20473;-72
2023/12/29 01:56:50;;;;;;;4.28;1.60;;;10.60;99.90;;;;;;5010813;28;20950;-73
2023/12/29 01:59:17;;;;;;;3.90;1.50;;;10.50;99.90;;;;;;5003189;28;20915;-72
2023/12/29 02:01:45;;;;;;;3.33;1.35;;;10.50;99.90;;;;;;5008115;28;20896;-72
2023/12/29 02:04:13;;;;;;;4.35;1.45;;;10.50;99.90;;;;;;5008961;28;20421;-72
2023/12/29 02:06:41;;;;;;;3.88;1.35;;;10.50;99.90;;;;;;5007358;28;20435;-73
2023/12/29 02:09:08;;;;;;;3.58;1.30;;;10.60;99.90;;;;;;5009223;28;20969;-72
2023/12/29 02:11:34;;;;;;;2.80;1.70;;;10.60;99.90;;;;;;5008273;28;20511;-73
2023/12/29 02:14:03;;;;;;;3.28;1.50;;;10.60;99.90;;;;;;5008437;28;20417;-72
2023/12/29 02:16:38;;;;;;;3.47;1.70;;;10.60;99.90;;;;;;5007986;28;20416;-72
2023/12/29 02:19:15;;;;;;;2.40;1.20;;;10.60;99.90;;;;;;5007116;28;20428;-73
2023/12/29 02:21:42;;;;;;;4.72;1.70;;;10.60;99.90;;;;;;5007612;28;20409;-73
2023/12/29 02:24:09;;;;;;;3.80;1.35;;;10.60;99.90;;;;;;5008004;28;20440;-72
2023/12/29 02:26:38;;;;;;;3.20;1.50;;;10.60;99.90;;;;;;5008062;28;20710;-71
2023/12/29 02:29:10;;;;;;;3.90;1.70;;;10.70;99.90;;;;;;5008134;28;20443;-72
2023/12/29 02:31:40;;;;;;;4.40;1.60;;;10.70;99.90;;;;;;5008281;28;20428;-72
2023/12/29 02:34:11;;;;;;;3.45;1.60;;;10.70;99.90;;;;;;5009207;28;20416;-72
2023/12/29 02:36:42;;;;;;;4.37;1.90;;;10.70;99.90;;;;;;5006116;28;20424;-72
2023/12/29 02:39:09;;;;;;;2.90;1.20;;;10.70;99.90;;;;;;5004940;28;20511;-73
2023/12/29 02:41:38;;;;;;;5.70;1.70;;;10.80;99.90;;;;;;5007869;28;20467;-72
2023/12/29 02:44:05;;;;;;;3.20;1.30;;;10.80;99.90;;;;;;5007545;28;20754;-73
2023/12/29 02:46:32;;;;;;;5.78;1.48;;;10.80;99.90;;;;;;5004856;28;20936;-72
2023/12/29 02:48:59;;;;;;;2.83;1.48;;;10.80;99.90;;;;;;5007339;28;20684;-73
2023/12/29 02:51:26;;;;;;;5.25;1.80;;;10.80;99.90;;;;;;5007222;28;20427;-73
2023/12/29 02:53:52;;;;;;;3.30;1.35;;;10.80;99.90;;;;;;5006739;28;20445;-73
2023/12/29 02:56:19;;;;;;;3.55;1.30;;;10.90;99.90;;;;;;5008171;28;20421;-73
2023/12/29 02:58:48;;;;;;;4.90;1.00;;;10.90;99.90;;;;;;5006890;28;20424;-73
2023/12/29 03:01:14;;;;;;;2.97;1.20;;;10.90;99.90;;;;;;5010196;28;20492;-72
2023/12/29 03:03:41;;;;;;;5.80;1.70;;;10.80;99.90;;;;;;5006849;28;20420;-73
2023/12/29 03:06:08;;;;;;;4.80;1.50;;;10.80;99.90;;;;;;5006221;28;20436;-73
2023/12/29 03:08:34;;;;;;;4.80;1.40;;;10.80;99.90;;;;;;5006249;28;20413;-73
2023/12/29 03:11:01;;;;;;;3.30;1.20;;;10.90;99.90;;;;;;5007210;28;20439;-73
2023/12/29 03:13:28;;;;;;;3.53;1.40;;;10.90;99.90;;;;;;5006698;28;20420;-73
2023/12/29 03:15:56;;;;;;;2.45;1.10;;;10.90;99.90;;;;;;5007626;28;20423;-73
2023/12/29 03:18:23;;;;;;;3.60;1.50;;;11.00;99.90;;;;;;5006889;28;20777;-72
2023/12/29 03:20:49;;;;;;;3.40;1.30;;;11.00;99.90;;;;;;5006377;28;20616;-73
2023/12/29 03:23:16;;;;;;;4.60;1.42;;;11.00;99.90;;;;;;5009948;28;20769;-73
2023/12/29 03:25:43;;;;;;;3.25;1.30;;;11.10;99.90;;;;;;5007021;28;20444;-73
2023/12/29 03:28:10;;;;;;;5.32;1.73;;;11.10;99.90;;;;;;5011947;28;20417;-73
2023/12/29 03:30:36;;;;;;;7.60;1.70;;;11.10;99.90;;;;;;5007062;28;20608;-73
2023/12/29 03:33:05;;;;;;;4.32;1.00;;;11.10;99.90;;;;;;5007417;28;20425;-72
2023/12/29 03:35:32;;;;;;;3.95;1.50;;;11.10;99.90;;;;;;5006352;28;20506;-73
2023/12/29 03:37:58;;;;;;;3.42;1.20;;;11.10;99.90;;;;;;5006421;28;20425;-73
2023/12/29 03:40:25;;;;;;;4.47;1.30;;;11.10;99.90;;;;;;5005830;28;20439;-73
2023/12/29 03:42:52;;;;;;;4.35;1.50;;;11.20;99.90;;;;;;5009108;28;20431;-73
2023/12/29 03:45:19;;;;;;;2.80;1.10;;;11.10;99.90;;;;;;5008107;28;20439;-72
2023/12/29 03:47:45;;;;;;;3.50;1.20;;;11.10;99.90;;;;;;5006555;28;20420;-72
2023/12/29 03:50:13;;;;;;;4.68;1.48;;;11.10;99.90;;;;;;5006748;28;20787;-73
2023/12/29 03:52:40;;;;;;;4.93;1.20;;;11.10;99.90;;;;;;5005977;28;20811;-72
2023/12/29 03:55:08;;;;;;;3.60;1.20;;;11.10;99.90;;;;;;5007355;28;20427;-73
2023/12/29 03:57:34;;;;;;;4.70;1.20;;;11.10;99.90;;;;;;5001496;28;20982;-73
2023/12/29 04:00:01;;;;;;;3.10;1.20;;;11.10;99.90;;;;;;5009278;28;20443;-73
2023/12/29 04:02:28;;;;;;;3.58;1.20;;;11.10;99.90;;;;;;5016865;28;20424;-73
2023/12/29 04:04:55;;;;;;;3.10;1.30;;;11.10;99.90;;;;;;5010274;28;20431;-73
2023/12/29 04:07:23;;;;;;;3.13;1.27;;;11.10;99.90;;;;;;5010183;28;20423;-72
2023/12/29 04:09:50;;;;;;;4.38;1.20;;;11.10;99.90;;;;;;5010616;28;20877;-73
2023/12/29 04:12:17;;;;;;;4.25;1.20;;;11.10;99.90;;;;;;5003896;28;20425;-73
2023/12/29 04:14:43;;;;;;;2.90;1.20;;;11.10;99.90;;;;;;5010708;28;20508;-72
2023/12/29 04:17:13;;;;;;;2.90;1.33;;;11.00;99.90;;;;;;5010650;28;20425;-73
2023/12/29 04:19:40;;;;;;;5.10;1.60;;;11.10;99.90;;;;;;5010346;28;20455;-72
2023/12/29 04:22:08;;;;;;;4.05;1.20;;;11.10;99.90;;;;;;5010900;28;20436;-72
2023/12/29 04:24:39;;;;;;;6.45;1.40;;;11.00;99.90;;;;;;5015498;28;20424;-72
2023/12/29 04:27:06;;;;;;;4.50;1.45;;;11.00;99.90;;;;;;5010434;28;20437;-71
2023/12/29 04:29:33;;;;;;;4.72;1.35;;;11.10;99.90;;;;;;5010843;28;20413;-72
2023/12/29 04:31:59;;;;;;;3.20;1.30;;;11.00;99.90;;;;;;5010321;28;20926;-72
2023/12/29 04:34:26;;;;;;;3.30;1.20;;;11.00;99.90;;;;;;5009647;28;20435;-72
2023/12/29 04:36:53;;;;;;;2.90;1.25;;;11.00;99.90;;;;;;5008368;28;20429;-72
2023/12/29 04:39:19;;;;;;;4.38;1.40;;;11.00;99.90;;;;;;5009640;28;20859;-72
2023/12/29 04:41:47;;;;;;;5.07;1.20;;;11.00;99.90;;;;;;5012403;28;20421;-72
2023/12/29 04:44:14;;;;;;;2.73;1.10;;;11.00;99.90;;;;;;5014369;28;20796;-72
2023/12/29 04:46:41;;;;;;;4.15;1.10;;;11.00;99.90;;;;;;5010266;28;20416;-72
2023/12/29 04:49:08;;;;;;;2.33;1.10;;;11.00;99.90;;;;;;5009878;28;20428;-72
2023/12/29 04:51:35;;;;;;;3.95;1.38;;;11.10;99.90;;;;;;5008793;28;20437;-72
2023/12/29 04:54:02;;;;;;;5.72;1.40;;;11.10;99.90;;;;;;5009526;28;20523;-72
2023/12/29 04:56:28;;;;;;;2.67;1.00;;;11.10;99.90;;;;;;5009445;28;20420;-72
2023/12/29 04:58:57;;;;;;;2.65;1.30;;;11.10;99.90;;;;;;5009087;28;20425;-72
2023/12/29 05:01:23;;;;;;;5.05;1.70;;;11.10;99.90;;;;;;5009671;28;20931;-72
2023/12/29 05:03:50;;;;;;;5.35;1.30;;;11.20;99.90;;;;;;5010072;28;20421;-72
2023/12/29 05:06:17;;;;;;;3.63;1.27;;;11.20;99.90;;;;;;5008060;28;20432;-73
2023/12/29 05:08:43;;;;;;;3.50;1.20;;;11.20;99.90;;;;;;5009935;28;20420;-72
2023/12/29 05:11:10;;;;;;;2.20;1.00;;;11.20;99.90;;;;;;5008660;28;20409;-72
2023/12/29 05:13:37;;;;;;;3.58;1.38;;;11.20;99.90;;;;;;5009497;28;20884;-72
2023/12/29 05:16:06;;;;;;;5.20;1.50;;;11.20;99.90;;;;;;5009310;28;20417;-73
2023/12/29 05:18:33;;;;;;;4.70;1.50;;;11.10;99.90;;;;;;5009003;28;20413;-72
2023/12/29 05:20:59;;;;;;;4.40;1.30;;;11.10;99.90;;;;;;5006280;28;20433;-72
2023/12/29 05:23:26;;;;;;;4.60;1.20;;;11.00;99.90;;;;;;5008970;28;20769;-73
2023/12/29 05:25:53;;;;;;;3.70;1.08;;;10.90;99.90;;;;;;5010087;28;20421;-73
2023/12/29 05:28:19;;;;;;;3.60;1.20;;;10.90;99.90;;;;;;5008735;28;20604;-73
2023/12/29 05:30:46;;;;;;;3.08;1.10;;;11.00;99.90;;;;;;5015396;28;20430;-72
2023/12/29 05:33:14;;;;;;;5.00;1.20;;;10.90;99.90;;;;;;5009591;28;20412;-73
2023/12/29 05:35:41;;;;;;;3.45;1.30;;;10.90;99.90;;;;;;5008128;28;20444;-72
2023/12/29 05:38:08;;;;;;;3.60;1.30;;;10.90;99.90;;;;;;5008804;28;20915;-73
2023/12/29 05:40:35;;;;;;;4.60;1.20;;;10.90;99.90;;;;;;5009501;28;20907;-73
2023/12/29 05:43:01;;;;;;;4.30;1.10;;;10.90;99.90;;;;;;5010676;28;20423;-72
2023/12/29 05:45:28;;;;;;;3.38;1.40;;;10.90;99.90;;;;;;5010878;28;20887;-72
2023/12/29 05:47:55;;;;;;;6.15;1.20;;;10.90;99.90;;;;;;5008614;28;20508;-72
2023/12/29 05:50:23;;;;;;;3.33;1.30;;;10.80;99.90;;;;;;5006616;28;20439;-72
2023/12/29 05:52:51;;;;;;;3.20;1.10;;;10.70;99.90;;;;;;5008324;28;20442;-72
2023/12/29 05:55:18;;;;;;;2.80;1.00;;;10.70;99.90;;;;;;5006385;28;20420;-72
2023/12/29 05:57:46;;;;;;;4.10;1.58;;;10.70;99.90;;;;;;5008293;28;20417;-71
2023/12/29 06:00:14;;;;;;;4.47;1.05;;;10.70;99.90;;;;;;5002992;28;20433;-72
2023/12/29 06:02:41;;;;;;;3.40;1.40;;;10.60;99.90;;;;;;5007571;28;20475;-72
2023/12/29 06:05:09;;;;;;;3.17;1.10;;;10.60;99.90;;;;;;5007196;28;20979;-72
2023/12/29 06:07:38;;;;;;;2.67;0.80;;;10.60;99.90;;;;;;5004733;28;20429;-72
2023/12/29 06:10:06;;;;;;;3.80;1.30;;;10.60;99.90;;;;;;5007729;28;20877;-72
2023/12/29 06:12:32;;;;;;;2.35;1.20;;;10.60;99.90;;;;;;5008189;28;20925;-72
2023/12/29 06:14:58;;;;;;;3.40;1.15;;;10.50;99.90;;;;;;5007164;28;20420;-73
2023/12/29 06:17:25;;;;;;;4.38;1.60;;;10.50;99.90;;;;;;5007908;28;20783;-72
2023/12/29 06:19:52;;;;;;;4.53;1.30;;;10.50;99.90;;;;;;5006902;28;20440;-72
2023/12/29 06:22:19;;;;;;;3.05;1.20;;;10.50;99.90;;;;;;5007866;28;20439;-72
2023/12/29 06:24:47;;;;;;;4.88;1.45;;;10.50;99.90;;;;;;5008423;28;20421;-73
2023/12/29 06:27:14;;;;;;;3.05;1.58;;;10.50;99.90;;;;;;5006215;28;20427;-72
2023/12/29 06:29:42;;;;;;;3.83;1.27;;;10.50;99.90;;;;;;5007536;28;20828;-72
2023/12/29 06:32:09;;;;;;;3.78;0.98;;;10.50;99.90;;;;;;5007391;28;20437;-72
2023/12/29 06:34:36;;;;;;;2.65;1.10;;;10.50;99.90;;;;;;5007095;28;20452;-72
2023/12/29 06:37:02;;;;;;;3.92;1.27;;;10.50;99.90;;;;;;5011810;28;20420;-72
2023/12/29 06:39:29;;;;;;;3.00;1.30;;;10.50;99.90;;;;;;5032094;23;20487;-70
2023/12/29 06:41:57;;;;;;;3.87;1.10;;;10.50;99.90;;;;;;5027542;28;20433;-70
2023/12/29 06:44:24;;;;;;;3.83;1.20;;;10.50;99.90;;;;;;5040589;28;20563;-70
2023/12/29 06:46:51;;;;;;;2.85;1.30;;;10.50;99.90;;;;;;5042485;28;20424;-70
2023/12/29 06:49:18;;;;;;;3.40;1.15;;;10.50;99.90;;;;;;5041831;28;20441;-70
2023/12/29 06:51:45;;;;;;;2.80;1.20;;;10.50;99.90;;;;;;5039289;28;20409;-70
2023/12/29 06:54:12;;;;;;;5.72;1.45;;;10.60;99.90;;;;;;5044080;28;20421;-70
2023/12/29 06:56:39;;;;;;;3.63;1.45;;;10.60;99.90;;;;;;5040874;28;20466;-70
2023/12/29 06:59:08;;;;;;;4.30;1.40;;;10.60;99.90;;;;;;5044060;28;20421;-70
2023/12/29 07:01:34;;;;;;;4.72;1.30;;;10.60;99.90;;;;;;5042021;28;20800;-70
2023/12/29 07:04:01;;;;;;;3.10;1.13;;;10.60;99.90;;;;;;5041916;28;20420;-70
2023/12/29 07:06:28;;;;;;;3.57;1.20;;;10.70;99.90;;;;;;5041142;28;20720;-70
2023/12/29 07:08:55;;;;;;;3.03;1.00;;;10.60;99.90;;;;;;5042120;28;20520;-70
2023/12/29 07:11:22;;;;;;;4.40;1.20;;;10.60;99.90;;;;;;5042941;28;20409;-71
2023/12/29 07:13:49;;;;;;;3.45;1.27;;;10.60;99.90;;;;;;5039508;28;20872;-70
2023/12/29 07:16:19;;;;;;;3.40;0.90;;;10.60;99.90;;;;;;5041076;28;20875;-70
2023/12/29 07:18:46;;;;;;;2.30;1.00;;;10.70;99.90;;;;;;5041131;28;20422;-70
2023/12/29 07:21:13;;;;;;;4.70;1.30;;;10.60;99.90;;;;;;5041130;28;20460;-70
2023/12/29 07:23:40;;;;;;;3.28;1.10;;;10.70;99.90;;;;;;5041924;28;20425;-70
2023/12/29 07:26:07;;;;;;;3.65;1.02;;;10.60;99.90;;;;;;5042948;28;20512;-70
2023/12/29 07:28:33;;;;;;;4.10;1.40;;;10.60;99.90;;;;;;5041850;28;20797;-70
2023/12/29 07:31:01;;;;;;;3.90;1.20;;;10.60;99.90;;;;;;5042610;28;20935;-69
2023/12/29 07:33:29;;;;;;;3.53;1.10;;;10.60;99.90;;;;;;5039284;28;20913;-69
2023/12/29 07:35:56;;;;;;;2.67;1.00;;;10.60;99.90;;;;;;5040953;28;20474;-69
2023/12/29 07:38:23;;;;;;;2.30;1.00;;;10.60;99.90;;;;;;5041455;28;20439;-69
2023/12/29 07:40:49;;;;;;;2.92;1.10;;;10.60;99.90;;;;;;5041459;28;20425;-69
2023/12/29 07:43:16;;;;;;;1.83;0.90;;;10.60;99.90;;;;;;5043092;28;20451;-69
2023/12/29 07:45:43;;;;;;;1.63;0.82;;;10.60;99.90;;;;;;5040386;28;20860;-69
2023/12/29 07:48:10;;;;;;;2.00;1.00;;;10.60;99.90;;;;;;5029362;28;20568;-70
2023/12/29 07:50:38;;;;;;;4.13;1.00;;;10.60;99.90;;;;;;5041315;28;20421;-70
2023/12/29 07:53:05;;;;;;;2.67;0.90;;;10.80;99.90;;;;;;5042358;28;20543;-68
2023/12/29 07:55:32;;;;;;;3.40;1.15;;;10.80;99.90;;;;;;5040590;28;20867;-66
2023/12/29 07:57:59;;;;;;;2.83;1.10;;;10.80;99.90;;;;;;5036926;28;20436;-66
2023/12/29 08:00:26;;;;;;;3.15;0.80;;;10.70;99.90;;;;;;5039687;28;20440;-66
2023/12/29 08:02:53;;;;;;;3.90;1.00;;;10.50;99.90;;;;;;5038774;28;20524;-68
2023/12/29 08:05:20;;;;;;;2.10;1.30;;;10.30;99.90;;;;;;5049414;28;20879;-67
2023/12/29 08:07:48;;;;;;;2.20;0.90;;;10.10;99.90;;;;;;5039843;28;20918;-67
2023/12/29 08:10:15;;;;;;;3.83;1.00;;;9.90;99.90;;;;;;5039627;28;20416;-67
2023/12/29 08:12:41;;;;;;;2.92;1.10;;;9.80;99.90;;;;;;5041994;28;20745;-66
2023/12/29 08:15:09;;;;;;;2.90;1.30;;;9.70;99.90;;;;;;5042677;28;20413;-67
2023/12/29 08:17:35;;;;;;;3.67;1.40;;;9.50;99.90;;;;;;5036709;28;20441;-67
2023/12/29 08:20:02;;;;;;;4.25;1.30;;;9.40;99.90;;;;;;5041138;28;20420;-68
2023/12/29 08:22:32;;;;;;;3.22;1.27;;;9.30;99.90;;;;;;5041206;28;20551;-68
2023/12/29 08:25:00;;;;;;;5.10;1.48;;;9.30;99.90;;;;;;5040272;28;20782;-67
2023/12/29 08:27:27;;;;;;;3.75;1.50;;;9.20;99.90;;;;;;5040648;28;20488;-66
2023/12/29 08:29:53;;;;;;;5.20;1.42;;;9.10;99.90;;;;;;5040555;28;20423;-67
2023/12/29 08:32:21;;;;;;;4.60;1.70;;;9.00;99.90;;;;;;5039439;28;20490;-67
2023/12/29 08:34:48;;;;;;;4.37;1.90;;;8.90;99.90;;;;;;5041500;28;20413;-66
2023/12/29 08:37:19;;;;;;;4.10;2.00;;;8.90;99.90;;;;;;5046566;28;20424;-67
2023/12/29 08:39:46;;;;;;;7.00;2.05;;;8.90;99.90;;;;;;5042408;28;20420;-66
2023/12/29 08:42:14;;;;;;;4.07;1.90;;;8.90;99.90;;;;;;5041719;28;20456;-67
2023/12/29 08:44:41;;;;;;;3.05;1.80;;;8.90;99.90;;;;;;5042293;28;20436;-66
2023/12/29 08:47:08;;;;;;;6.00;2.10;;;8.90;99.90;;;;;;5042928;28;20444;-67
2023/12/29 08:49:36;;;;;;;2.72;1.70;;;8.90;99.90;;;;;;5045237;28;20518;-67
2023/12/29 08:52:03;;;;;;;4.15;1.77;;;8.90;99.90;;;;;;5047135;28;20409;-67
2023/12/29 08:54:29;;;;;;;4.93;2.58;;;8.90;99.90;;;;;;5045702;28;20425;-67
2023/12/29 08:56:56;;;;;;;5.57;2.03;;;8.90;99.90;;;;;;5043192;28;20422;-67
2023/12/29 08:59:24;;;;;;;3.13;2.35;;;8.90;99.90;;;;;;5038321;28;20836;-66
2023/12/29 09:01:51;;;;;;;5.17;2.20;;;8.90;99.90;;;;;;5044453;28;20875;-67
2023/12/29 09:04:17;;;;;;;6.50;2.03;;;8.90;99.90;;;;;;5044411;28;20417;-67
2023/12/29 09:06:44;;;;;;;4.90;2.13;;;8.90;99.90;;;;;;5044704;28;20410;-67
2023/12/29 09:09:12;;;;;;;3.78;1.77;;;8.90;99.90;;;;;;5046172;28;20421;-71
2023/12/29 09:11:39;;;;;;;4.95;2.10;;;8.90;99.90;;;;;;5042861;28;20440;-68
2023/12/29 09:14:06;;;;;;;4.30;1.83;;;9.00;99.90;;;;;;5044126;28;20433;-68
2023/12/29 09:16:36;;;;;;;4.28;1.90;;;9.00;99.90;;;;;;5045365;28;20486;-68
2023/12/29 09:19:03;;;;;;;4.30;2.05;;;9.00;99.90;;;;;;5052164;28;20467;-68
2023/12/29 09:21:30;;;;;;;4.47;2.03;;;8.90;99.90;;;;;;5045397;28;20437;-68
2023/12/29 09:23:58;;;;;;;5.60;2.70;;;9.00;99.90;;;;;;5045942;28;21037;-68
2023/12/29 09:26:25;;;;;;;5.90;2.70;;;9.00;99.90;;;;;;5045462;28;20445;-68
2023/12/29 09:28:51;;;;;;;6.72;2.45;;;9.00;99.90;;;;;;5043694;28;20416;-68
2023/12/29 09:31:18;;;;;;;7.72;2.70;;;9.00;99.90;;;;;;5043398;28;20950;-68
2023/12/29 09:33:46;;;;;;;3.45;2.30;;;9.00;99.90;;;;;;5044909;28;20430;-68
2023/12/29 09:36:13;;;;;;;5.72;2.50;;;9.00;99.90;;;;;;5053472;28;20409;-67
2023/12/29 09:38:41;;;;;;;6.10;2.10;;;9.00;99.90;;;;;;5051853;28;20418;-68
2023/12/29 09:41:14;;;;;;;6.25;2.40;;;9.10;99.90;;;;;;5044178;28;20417;-68
2023/12/29 09:43:42;;;;;;;6.00;1.92;;;9.10;99.90;;;;;;5041145;28;20414;-68
2023/12/29 09:46:10;;;;;;;4.15;1.70;;;9.10;99.90;;;;;;5041851;28;20528;-68
2023/12/29 09:48:38;;;;;;;4.75;1.85;;;9.20;99.90;;;;;;5045531;28;20417;-66
2023/12/29 09:51:06;;;;;;;3.70;1.95;;;9.20;99.90;;;;;;5045070;28;20422;-67
2023/12/29 09:53:36;;;;;;;4.32;2.00;;;9.30;99.90;;;;;;5045723;28;20425;-67
2023/12/29 09:56:05;;;;;;;5.57;2.22;;;9.30;99.90;;;;;;5045241;28;20414;-67
2023/12/29 09:58:32;;;;;;;4.78;1.80;;;9.30;99.90;;;;;;5045044;28;20413;-66
2023/12/29 10:00:59;;;;;;;4.00;1.30;;;9.30;99.90;;;;;;5043035;28;20444;-67
2023/12/29 10:03:26;;;;;;;3.10;1.30;;;9.40;99.90;;;;;;5044722;28;20428;-68
2023/12/29 10:05:57;;;;;;;3.40;1.40;;;9.40;99.90;;;;;;5045148;28;20409;-67
2023/12/29 10:08:26;;;;;;;3.10;1.20;;;9.40;99.90;;;;;;5040581;28;20405;-67
2023/12/29 10:10:55;;;;;;;4.88;1.40;;;9.50;99.90;;;;;;5043109;28;20440;-67
2023/12/29 10:13:22;;;;;;;2.60;1.20;;;9.50;99.90;;;;;;5042541;28;20413;-66
2023/12/29 10:15:55;;;;;;;2.55;1.10;;;9.60;99.90;;;;;;5043403;28;20426;-67
2023/12/29 10:18:25;;;;;;;2.70;1.10;;;9.60;99.90;;;;;;5044866;28;20898;-66
2023/12/29 10:20:58;;;;;;;1.30;0.80;;;9.70;99.90;;;;;;5045286;28;20425;-67
2023/12/29 10:23:33;;;;;;;1.93;0.93;;;9.80;99.90;;;;;;5040926;28;20797;-66
2023/12/29 10:25:59;;;;;;;2.90;1.20;;;9.90;99.90;;;;;;5043394;28;20764;-67
2023/12/29 10:28:26;;;;;;;2.03;1.10;;;10.00;99.90;;;;;;5051090;28;20429;-67
2023/12/29 10:30:53;;;;;;;1.83;0.65;;;10.10;99.90;;;;;;5051222;28;20829;-67
2023/12/29 10:33:24;;;;;;;1.77;0.60;;;10.20;99.90;;;;;;5044205;28;20409;-67
2023/12/29 10:36:02;;;;;;;1.45;0.70;;;10.30;99.90;;;;;;5044356;28;20859;-67
2023/12/29 10:38:31;;;;;;;2.38;1.08;;;10.40;99.90;;;;;;5041814;28;20800;-67
2023/12/29 10:41:12;;;;;;;1.60;0.70;;;10.50;99.90;;;;;;5042744;28;20804;-67
2023/12/29 10:43:39;;;;;;;1.52;0.73;;;10.50;99.90;;;;;;5035440;28;20437;-67
2023/12/29 10:46:08;;;;;;;2.90;0.80;;;10.50;99.90;;;;;;5044347;28;20417;-67
2023/12/29 10:48:35;;;;;;;2.20;0.90;;;10.50;99.90;;;;;;5043429;28;20421;-67
2023/12/29 10:51:03;;;;;;;2.15;1.10;;;10.60;99.90;;;;;;5047343;28;20484;-67
2023/12/29 10:53:32;;;;;;;1.50;0.80;;;10.60;99.90;;;;;;5043016;28;20452;-68
2023/12/29 10:55:59;;;;;;;1.73;0.70;;;10.60;99.90;;;;;;5043104;28;20424;-66
2023/12/29 10:58:27;;;;;;;1.67;0.70;;;10.70;99.90;;;;;;5043197;28;20460;-68
2023/12/29 11:00:54;;;;;;;2.28;0.60;;;10.70;99.90;;;;;;5040574;28;20433;-68
2023/12/29 11:03:21;;;;;;;1.45;0.50;;;10.70;99.90;;;;;;5043087;28;20518;-68
2023/12/29 11:05:48;;;;;;;1.30;0.63;;;10.80;99.90;;;;;;5041883;28;20784;-68
2023/12/29 11:08:19;;;;;;;2.30;0.70;;;11.00;99.90;;;;;;5043459;28;20420;-67
2023/12/29 11:10:49;;;;;;;2.22;0.70;;;11.10;99.90;;;;;;5044463;28;20416;-68
2023/12/29 11:13:16;;;;;;;2.05;0.70;;;11.10;99.90;;;;;;5046962;28;20436;-67
2023/12/29 11:15:45;;;;;;;3.07;0.80;;;11.10;99.90;;;;;;5045102;28;20962;-67
2023/12/29 11:18:14;;;;;;;1.50;0.70;;;11.10;99.90;;;;;;5042544;28;20508;-68
2023/12/29 11:20:42;;;;;;;1.42;0.70;;;11.10;99.90;;;;;;5041144;28;20944;-68
2023/12/29 11:23:11;;;;;;;2.20;0.90;;;11.20;99.90;;;;;;5044923;28;20455;-68
2023/12/29 11:25:38;;;;;;;1.58;0.50;;;11.30;99.90;;;;;;5042900;28;20425;-67
2023/12/29 11:28:09;;;;;;;1.70;0.70;;;11.40;99.90;;;;;;5039403;28;20433;-68
2023/12/29 11:30:37;;;;;;;2.30;0.90;;;11.40;99.90;;;;;;5045060;28;20911;-67
2023/12/29 11:33:10;;;;;;;1.77;0.80;;;11.50;99.90;;;;;;5041981;28;20765;-67
2023/12/29 11:35:44;;;;;;;2.90;0.63;;;11.50;99.90;;;;;;5040734;28;20440;-67
2023/12/29 11:38:30;;;;;;;2.03;0.60;;;11.60;99.90;;;;;;5043150;28;20414;-68
2023/12/29 11:41:03;;;;;;;1.92;0.70;;;11.60;99.90;;;;;;5039845;28;20428;-67
2023/12/29 11:43:32;;;;;;;2.40;0.60;;;11.70;99.90;;;;;;5041078;28;20437;-68
2023/12/29 11:45:58;;;;;;;2.15;0.77;;;11.70;99.90;;;;;;5042488;28;20413;-68
2023/12/29 11:48:54;;;;;;;2.17;0.70;;;11.80;99.90;;;;;;5040542;28;20420;-67
2023/12/29 11:51:34;;;;;;;1.90;0.70;;;11.80;99.90;;;;;;5040012;28;20443;-67
2023/12/29 11:54:02;;;;;;;3.28;0.80;;;11.90;99.90;;;;;;5043286;28;20433;-68
2023/12/29 11:56:33;;;;;;;2.10;0.90;;;12.00;99.90;;;;;;5042903;28;20436;-67
2023/12/29 11:59:15;;;;;;;1.70;0.80;;;12.00;99.90;;;;;;5044077;28;20432;-67
2023/12/29 12:01:42;;;;;;;1.80;0.57;;;12.00;99.90;;;;;;5043052;28;20737;-68
2023/12/29 12:04:37;;;;;;;1.15;0.55;;;12.00;99.90;;;;;;5042591;28;20421;-67
2023/12/29 12:07:05;;;;;;;1.88;0.80;;;11.90;99.90;;;;;;5042396;28;20909;-68
2023/12/29 12:09:34;;;;;;;1.60;0.50;;;11.90;99.90;;;;;;5042883;28;20429;-68
2023/12/29 12:12:02;;;;;;;1.08;0.55;;;11.80;99.90;;;;;;5048981;28;20921;-67
2023/12/29 12:14:54;;;;;;;1.70;0.50;;;11.80;99.90;;;;;;5045452;28;20578;-68
2023/12/29 12:17:30;;;;;;;1.20;0.50;;;11.80;99.90;;;;;;5047086;28;20843;-68
2023/12/29 12:20:04;;;;;;;1.70;0.50;;;11.90;99.90;;;;;;5047875;28;20486;-68
2023/12/29 12:22:32;;;;;;;1.50;0.70;;;11.90;99.90;;;;;;5047599;28;20448;-68
2023/12/29 12:24:59;;;;;;;1.20;0.60;;;11.90;99.90;;;;;;5048563;28;20421;-67
2023/12/29 12:27:27;;;;;;;1.45;0.60;;;11.90;99.90;;;;;;5045901;28;20432;-67
2023/12/29 12:29:59;;;;;;;2.30;0.70;;;11.80;99.90;;;;;;5046795;28;20413;-68
2023/12/29 12:32:27;;;;;;;1.38;0.50;;;11.80;99.90;;;;;;5047009;28;20424;-67
2023/12/29 12:34:54;;;;;;;1.80;0.60;;;11.90;99.90;;;;;;5055198;28;20407;-68
2023/12/29 12:37:22;;;;;;;1.50;0.43;;;11.90;99.90;;;;;;5044866;28;20429;-70
2023/12/29 12:39:49;;;;;;;0.80;0.40;;;11.90;99.90;;;;;;5045211;28;20448;-64
2023/12/29 12:42:16;;;;;;;1.50;0.50;;;11.90;99.90;;;;;;5045288;28;20906;-63
2023/12/29 12:44:50;;;;;;;1.40;0.50;;;11.90;99.90;;;;;;5044795;28;20595;-63
2023/12/29 12:47:25;;;;;;;2.00;0.60;;;11.90;99.90;;;;;;5046865;28;20872;-64
2023/12/29 12:49:52;;;;;;;1.10;0.40;;;11.80;99.90;;;;;;5062648;22;20515;-71
2023/12/29 12:52:19;;;;;;;1.40;0.40;;;11.80;99.90;;;;;;5002476;28;20931;-71